Long Stratton, United Kingdom
Current Conditions -  °F | °C
As of 1:50 AM on Friday 19 Dec 2014 (Local Time) from EGSH Reporting Station
Overcast Overcast  
Wind Chill: 55°   Ceiling: 1300
Heat Index: 55°   Visibility: 6mi
Dew Point: 52°   Wind: 22mph
Humidity: 88%   Direction: 230°SW
Pressure: 29.68"   Gusts: NA
Location:  52.49°N, 1.23°E
Report Text: EGSH 190150Z AUTO 23019KT 9999 FEW005/// BKN013/// OVC017/// 13/11 Q1005 RERA
Loading
Personal Weather Stations






























Interactive Weather Map New forecast layout! Learn more

10-Day Weather Forecast

Advertisements
Track Severe Weather on mobile